Time;durP1;ratioP1;P1;durP2;ratioP2;P2;SDS_P1;SDS_P2;PMS_P1;PMS_P2;Temp;Humidity;BMP_temperature;BMP_pressure;BME280_temperature;BME280_humidity;BME280_pressure;Samples;Min_cycle;Max_cycle;Signal;HPM_P1;HPM_P2
2021/09/06 00:00:43;;;;;;;1.27;0.63;;;;;;;;;;7396070;19;20015;-46
2021/09/06 00:03:11;;;;;;;2.03;0.93;;;;;;;;;;7398434;19;20011;-47
2021/09/06 00:05:38;;;;;;;1.10;0.60;;;;;;;;;;7396507;19;20018;-49
2021/09/06 00:08:05;;;;;;;0.93;0.57;;;;;;;;;;7399457;19;20031;-49
2021/09/06 00:10:33;;;;;;;1.38;0.70;;;;;;;;;;7397670;19;20022;-48
2021/09/06 00:13:01;;;;;;;1.83;0.77;;;;;;;;;;7398487;19;20015;-48
2021/09/06 00:15:29;;;;;;;3.38;0.70;;;;;;;;;;7398247;19;20025;-50
2021/09/06 00:17:56;;;;;;;0.93;0.60;;;;;;;;;;7397765;19;20015;-46
2021/09/06 00:20:25;;;;;;;1.00;0.60;;;;;;;;;;7396649;19;20017;-47
2021/09/06 00:22:53;;;;;;;0.95;0.57;;;;;;;;;;7397731;19;20017;-48
2021/09/06 00:25:21;;;;;;;2.22;0.60;;;;;;;;;;7398461;19;20010;-49
2021/09/06 00:27:48;;;;;;;2.58;0.60;;;;;;;;;;7395360;19;20003;-48
2021/09/06 00:30:16;;;;;;;1.67;0.65;;;;;;;;;;7397458;19;20015;-46
2021/09/06 00:32:44;;;;;;;6.38;0.70;;;;;;;;;;7397278;19;20011;-47
2021/09/06 00:35:12;;;;;;;1.35;0.70;;;;;;;;;;7397434;19;20031;-49
2021/09/06 00:37:42;;;;;;;1.50;0.60;;;;;;;;;;7397658;19;20014;-49
2021/09/06 00:40:11;;;;;;;1.92;0.80;;;;;;;;;;7393794;19;20475;-54
2021/09/06 00:42:38;;;;;;;0.85;0.70;;;;;;;;;;7395524;19;20010;-54
2021/09/06 00:45:06;;;;;;;7.50;2.17;;;;;;;;;;7396896;19;20080;-50
2021/09/06 00:47:36;;;;;;;5.78;1.60;;;;;;;;;;7395080;19;20480;-55
2021/09/06 00:50:06;;;;;;;3.58;0.93;;;;;;;;;;7394086;19;20014;-47
2021/09/06 00:52:35;;;;;;;1.55;0.70;;;;;;;;;;7400151;19;20014;-49
2021/09/06 00:55:03;;;;;;;2.30;1.02;;;;;;;;;;7397062;19;20390;-49
2021/09/06 00:57:32;;;;;;;2.88;0.80;;;;;;;;;;7395003;19;20019;-50
2021/09/06 01:00:06;;;;;;;1.95;0.82;;;;;;;;;;7393390;19;20014;-48
2021/09/06 01:02:34;;;;;;;2.57;1.50;;;;;;;;;;7396577;19;20085;-49
2021/09/06 01:05:04;;;;;;;1.52;0.60;;;;;;;;;;7396661;19;20022;-48
2021/09/06 01:07:48;;;;;;;1.17;0.68;;;;;;;;;;7396625;19;20018;-53
2021/09/06 01:10:45;;;;;;;1.67;0.80;;;;;;;;;;7392265;19;20006;-53
2021/09/06 01:13:33;;;;;;;1.45;1.00;;;;;;;;;;7395794;19;20588;-53
2021/09/06 01:16:01;;;;;;;2.42;0.80;;;;;;;;;;7394508;19;20055;-47
2021/09/06 01:18:28;;;;;;;2.65;0.85;;;;;;;;;;7396325;19;20023;-51
2021/09/06 01:20:58;;;;;;;1.75;0.93;;;;;;;;;;7392174;19;20045;-48
2021/09/06 01:23:41;;;;;;;1.55;0.70;;;;;;;;;;7391821;19;20014;-52
2021/09/06 01:26:13;;;;;;;1.33;0.65;;;;;;;;;;7394463;19;20018;-55
2021/09/06 01:28:41;;;;;;;1.10;0.70;;;;;;;;;;7394031;19;20015;-50
2021/09/06 01:31:08;;;;;;;1.08;0.60;;;;;;;;;;7395479;19;20011;-55
2021/09/06 01:33:44;;;;;;;2.22;0.70;;;;;;;;;;7394028;19;20018;-52
2021/09/06 01:36:13;;;;;;;2.35;0.75;;;;;;;;;;7393690;19;20048;-59
2021/09/06 01:38:41;;;;;;;1.40;0.90;;;;;;;;;;7394551;19;20027;-47
2021/09/06 01:41:08;;;;;;;2.40;0.80;;;;;;;;;;7392812;19;20015;-48
2021/09/06 01:43:36;;;;;;;1.02;0.70;;;;;;;;;;7393651;19;20074;-47
2021/09/06 01:46:04;;;;;;;1.02;0.65;;;;;;;;;;7393576;19;20049;-46
2021/09/06 01:48:35;;;;;;;1.65;0.73;;;;;;;;;;7394868;19;20011;-49
2021/09/06 01:51:03;;;;;;;1.00;0.70;;;;;;;;;;7393175;19;20475;-54
2021/09/06 01:53:31;;;;;;;1.33;0.60;;;;;;;;;;7392916;19;20078;-47
2021/09/06 01:56:01;;;;;;;1.25;0.68;;;;;;;;;;7393236;19;20007;-50
2021/09/06 01:58:30;;;;;;;1.48;0.75;;;;;;;;;;7389623;19;20019;-48
2021/09/06 02:00:57;;;;;;;0.80;0.70;;;;;;;;;;7391983;19;20014;-54
2021/09/06 02:03:34;;;;;;;1.60;0.85;;;;;;;;;;7392814;19;20064;-49
2021/09/06 02:06:03;;;;;;;1.70;1.00;;;;;;;;;;7390633;19;20018;-52
2021/09/06 02:08:43;;;;;;;1.70;0.73;;;;;;;;;;7392955;19;20027;-48
2021/09/06 02:11:12;;;;;;;3.70;0.90;;;;;;;;;;7392885;19;20014;-46
2021/09/06 02:13:40;;;;;;;0.82;0.60;;;;;;;;;;7390058;19;20030;-47
2021/09/06 02:16:08;;;;;;;1.65;0.75;;;;;;;;;;7392042;19;20019;-52
2021/09/06 02:18:39;;;;;;;1.92;0.82;;;;;;;;;;7391935;19;20013;-49
2021/09/06 02:21:06;;;;;;;3.08;0.82;;;;;;;;;;7391835;19;20074;-51
2021/09/06 02:23:34;;;;;;;1.42;0.80;;;;;;;;;;7391768;19;20534;-48
2021/09/06 02:26:02;;;;;;;2.88;1.00;;;;;;;;;;7393533;19;20366;-54
2021/09/06 02:28:33;;;;;;;4.20;1.10;;;;;;;;;;7391914;19;20010;-53
2021/09/06 02:31:03;;;;;;;1.48;0.90;;;;;;;;;;7391801;19;20354;-51
2021/09/06 02:33:46;;;;;;;1.17;0.60;;;;;;;;;;7391971;19;20051;-52
2021/09/06 02:36:20;;;;;;;1.67;0.80;;;;;;;;;;7394133;19;20039;-48
2021/09/06 02:38:48;;;;;;;1.98;0.90;;;;;;;;;;7391691;19;20011;-53
2021/09/06 02:41:15;;;;;;;1.20;0.80;;;;;;;;;;7390222;19;20010;-52
2021/09/06 02:43:44;;;;;;;1.40;0.95;;;;;;;;;;7391059;19;20014;-47
2021/09/06 02:46:11;;;;;;;5.40;0.98;;;;;;;;;;7393780;19;20018;-47
2021/09/06 02:48:39;;;;;;;1.73;0.95;;;;;;;;;;7392956;19;20475;-46
2021/09/06 02:51:06;;;;;;;1.30;0.70;;;;;;;;;;7392419;19;20021;-51
2021/09/06 02:53:34;;;;;;;1.67;0.95;;;;;;;;;;7392956;19;20040;-55
2021/09/06 02:56:02;;;;;;;1.10;0.70;;;;;;;;;;7392920;19;20367;-48
2021/09/06 02:58:34;;;;;;;1.00;0.60;;;;;;;;;;7390951;19;20021;-51
2021/09/06 03:01:01;;;;;;;1.95;0.98;;;;;;;;;;7391456;19;20022;-48
2021/09/06 03:03:30;;;;;;;1.23;0.85;;;;;;;;;;7391098;19;20086;-49
2021/09/06 03:06:00;;;;;;;4.68;0.73;;;;;;;;;;7389710;19;20018;-50
2021/09/06 03:08:27;;;;;;;2.05;0.85;;;;;;;;;;7392201;19;20019;-53
2021/09/06 03:10:55;;;;;;;3.20;0.80;;;;;;;;;;7390513;19;20439;-51
2021/09/06 03:13:23;;;;;;;1.48;0.70;;;;;;;;;;7392013;19;20022;-49
2021/09/06 03:15:50;;;;;;;1.42;0.90;;;;;;;;;;7390581;19;20018;-52
2021/09/06 03:18:18;;;;;;;1.92;0.75;;;;;;;;;;7389943;19;20499;-48
2021/09/06 03:21:05;;;;;;;6.15;0.77;;;;;;;;;;7389602;19;20010;-48
2021/09/06 03:23:33;;;;;;;1.90;0.90;;;;;;;;;;7391876;19;20014;-52
2021/09/06 03:26:00;;;;;;;1.17;0.82;;;;;;;;;;7391357;19;20014;-46
2021/09/06 03:28:29;;;;;;;1.60;0.80;;;;;;;;;;7391675;19;20034;-48
2021/09/06 03:30:56;;;;;;;2.00;0.90;;;;;;;;;;7389597;19;20018;-52
2021/09/06 03:33:24;;;;;;;1.25;1.00;;;;;;;;;;7389165;19;20045;-53
2021/09/06 03:35:53;;;;;;;2.13;0.75;;;;;;;;;;7390186;19;20014;-47
2021/09/06 03:38:21;;;;;;;1.27;0.70;;;;;;;;;;7391634;19;20024;-54
2021/09/06 03:40:48;;;;;;;3.60;1.17;;;;;;;;;;7390435;19;20018;-51
2021/09/06 03:43:16;;;;;;;2.78;1.52;;;;;;;;;;7389318;19;20010;-52
2021/09/06 03:45:44;;;;;;;4.28;1.00;;;;;;;;;;7389219;19;20018;-54
2021/09/06 03:48:13;;;;;;;2.03;0.70;;;;;;;;;;7389578;19;20498;-47
2021/09/06 03:50:43;;;;;;;1.48;0.98;;;;;;;;;;7391131;19;20475;-54
2021/09/06 03:53:12;;;;;;;1.65;1.00;;;;;;;;;;7394178;19;20016;-46
2021/09/06 03:55:39;;;;;;;1.27;0.88;;;;;;;;;;7391553;19;20015;-51
2021/09/06 03:58:10;;;;;;;2.40;1.20;;;;;;;;;;7389406;19;20014;-55
2021/09/06 04:00:39;;;;;;;1.48;0.70;;;;;;;;;;7388729;19;20015;-49
2021/09/06 04:03:09;;;;;;;2.95;1.17;;;;;;;;;;7388216;19;20062;-49
2021/09/06 04:05:38;;;;;;;2.30;1.10;;;;;;;;;;7391052;19;20018;-50
2021/09/06 04:08:07;;;;;;;2.50;1.50;;;;;;;;;;7390727;19;20017;-52
2021/09/06 04:10:36;;;;;;;2.30;1.50;;;;;;;;;;7388341;19;20074;-50
2021/09/06 04:13:03;;;;;;;4.60;2.00;;;;;;;;;;7389400;19;20090;-49
2021/09/06 04:15:31;;;;;;;3.38;1.98;;;;;;;;;;7388957;19;20027;-48
2021/09/06 04:17:58;;;;;;;6.47;2.90;;;;;;;;;;7388199;19;20018;-59
2021/09/06 04:20:26;;;;;;;15.95;5.70;;;;;;;;;;7387942;19;20074;-57
2021/09/06 04:22:54;;;;;;;9.23;4.38;;;;;;;;;;7389465;19;20010;-52
2021/09/06 04:25:22;;;;;;;7.20;3.25;;;;;;;;;;7388125;19;20015;-47
2021/09/06 04:27:50;;;;;;;5.70;3.47;;;;;;;;;;7388680;19;20474;-49
2021/09/06 04:30:18;;;;;;;9.18;4.35;;;;;;;;;;7388949;19;20021;-50
2021/09/06 04:32:46;;;;;;;5.65;3.17;;;;;;;;;;7387700;19;20031;-51
2021/09/06 04:35:13;;;;;;;6.25;2.90;;;;;;;;;;7389808;19;20014;-49
2021/09/06 04:37:42;;;;;;;5.38;3.42;;;;;;;;;;7388137;19;20018;-52
2021/09/06 04:40:14;;;;;;;4.80;2.63;;;;;;;;;;7387687;19;20014;-48
2021/09/06 04:42:44;;;;;;;5.22;3.20;;;;;;;;;;7387777;19;20078;-53
2021/09/06 04:45:12;;;;;;;18.70;8.32;;;;;;;;;;7390246;19;20007;-60
2021/09/06 04:47:42;;;;;;;16.92;7.32;;;;;;;;;;7394843;19;20100;-47
2021/09/06 04:50:10;;;;;;;12.90;5.30;;;;;;;;;;7394696;19;20014;-48
2021/09/06 04:52:38;;;;;;;11.35;4.50;;;;;;;;;;7400311;19;20010;-46
2021/09/06 04:55:11;;;;;;;7.05;2.78;;;;;;;;;;7395777;19;20082;-49
2021/09/06 04:57:41;;;;;;;3.78;2.03;;;;;;;;;;7395439;19;20018;-49
2021/09/06 05:00:10;;;;;;;4.80;2.33;;;;;;;;;;7394869;19;20031;-51
2021/09/06 05:02:37;;;;;;;4.47;1.90;;;;;;;;;;7394826;19;20493;-50
2021/09/06 05:05:06;;;;;;;6.03;2.38;;;;;;;;;;7395314;19;20027;-51
2021/09/06 05:07:35;;;;;;;5.35;2.55;;;;;;;;;;7394179;19;20460;-47
2021/09/06 05:10:05;;;;;;;6.30;3.05;;;;;;;;;;7394829;19;20111;-50
2021/09/06 05:12:33;;;;;;;6.53;3.10;;;;;;;;;;7394387;19;20015;-45
2021/09/06 05:15:01;;;;;;;5.10;2.58;;;;;;;;;;7394184;19;20014;-45
2021/09/06 05:17:30;;;;;;;2.83;1.50;;;;;;;;;;7393751;19;20018;-46
2021/09/06 05:19:58;;;;;;;3.10;2.08;;;;;;;;;;7396056;19;20475;-45
2021/09/06 05:22:29;;;;;;;3.97;2.08;;;;;;;;;;7394595;19;20010;-46
2021/09/06 05:24:56;;;;;;;3.85;1.40;;;;;;;;;;7393177;19;20018;-45
2021/09/06 05:27:26;;;;;;;3.33;1.15;;;;;;;;;;7395821;19;20801;-46
2021/09/06 05:29:53;;;;;;;2.03;0.93;;;;;;;;;;7396834;19;20014;-48
2021/09/06 05:32:20;;;;;;;2.50;1.10;;;;;;;;;;7395241;19;20085;-48
2021/09/06 05:34:48;;;;;;;52.50;22.85;;;;;;;;;;7393968;19;20015;-47
2021/09/06 05:37:15;;;;;;;12.77;6.18;;;;;;;;;;7395592;19;20043;-49
2021/09/06 05:39:43;;;;;;;3.67;1.48;;;;;;;;;;7393375;19;20598;-58
2021/09/06 05:42:10;;;;;;;2.75;0.70;;;;;;;;;;7391471;19;20540;-49
2021/09/06 05:44:39;;;;;;;2.03;0.93;;;;;;;;;;7395744;19;20006;-47
2021/09/06 05:47:07;;;;;;;1.67;0.73;;;;;;;;;;7394020;19;20021;-47
2021/09/06 05:49:41;;;;;;;1.77;0.85;;;;;;;;;;7393905;19;20021;-55
2021/09/06 05:52:19;;;;;;;2.08;0.98;;;;;;;;;;7396901;19;20066;-50
2021/09/06 05:54:47;;;;;;;3.05;0.88;;;;;;;;;;7393083;19;20018;-48
2021/09/06 05:57:19;;;;;;;1.48;0.80;;;;;;;;;;7393564;19;20027;-48
2021/09/06 05:59:47;;;;;;;1.25;0.65;;;;;;;;;;7395365;19;20018;-46
2021/09/06 06:02:14;;;;;;;2.97;0.80;;;;;;;;;;7392291;19;20010;-55
2021/09/06 06:04:47;;;;;;;74.15;30.08;;;;;;;;;;7394242;19;20010;-57
2021/09/06 06:07:15;;;;;;;7.57;2.60;;;;;;;;;;7389960;19;20014;-47
2021/09/06 06:09:43;;;;;;;2.10;0.90;;;;;;;;;;7392641;19;20018;-47
2021/09/06 06:12:11;;;;;;;2.92;0.70;;;;;;;;;;7393194;19;20018;-47
2021/09/06 06:14:39;;;;;;;1.90;0.68;;;;;;;;;;7394488;19;20015;-52
2021/09/06 06:17:06;;;;;;;0.88;0.60;;;;;;;;;;7392259;19;20019;-46
2021/09/06 06:19:38;;;;;;;1.67;0.77;;;;;;;;;;7392251;19;20014;-47
2021/09/06 06:22:41;;;;;;;1.35;0.80;;;;;;;;;;7391317;19;20480;-50
2021/09/06 06:25:23;;;;;;;1.80;0.95;;;;;;;;;;7392029;19;20006;-48
2021/09/06 06:28:01;;;;;;;2.78;0.80;;;;;;;;;;7391590;19;20724;-53
2021/09/06 06:30:28;;;;;;;2.35;0.90;;;;;;;;;;7392200;19;20015;-50
2021/09/06 06:32:56;;;;;;;2.10;1.00;;;;;;;;;;7393742;19;20025;-56
2021/09/06 06:35:38;;;;;;;1.25;0.65;;;;;;;;;;7391606;19;20018;-53
2021/09/06 06:38:07;;;;;;;12.25;5.13;;;;;;;;;;7391317;19;20022;-48
2021/09/06 06:40:37;;;;;;;3.55;1.92;;;;;;;;;;7391297;19;20047;-58
2021/09/06 06:43:06;;;;;;;2.47;0.75;;;;;;;;;;7391479;19;20011;-53
2021/09/06 06:45:34;;;;;;;2.17;0.80;;;;;;;;;;7393169;19;20493;-47
2021/09/06 06:48:03;;;;;;;1.55;0.60;;;;;;;;;;7391369;19;20368;-52
2021/09/06 06:50:31;;;;;;;1.67;0.90;;;;;;;;;;7391071;19;20082;-51
2021/09/06 06:52:59;;;;;;;2.17;0.75;;;;;;;;;;7394214;19;20471;-46
2021/09/06 06:55:27;;;;;;;2.17;0.80;;;;;;;;;;7390926;19;20538;-47
2021/09/06 06:57:58;;;;;;;22.50;13.30;;;;;;;;;;7391104;19;20085;-46
2021/09/06 07:00:26;;;;;;;2.97;1.38;;;;;;;;;;7390777;19;20007;-52
2021/09/06 07:02:54;;;;;;;1.77;0.70;;;;;;;;;;7390978;19;20467;-54
2021/09/06 07:05:24;;;;;;;2.30;0.82;;;;;;;;;;7390263;19;20029;-48
2021/09/06 07:07:52;;;;;;;1.23;0.65;;;;;;;;;;7391065;19;20031;-47
2021/09/06 07:10:19;;;;;;;2.13;0.90;;;;;;;;;;7392592;19;20035;-47
2021/09/06 07:12:47;;;;;;;1.70;0.80;;;;;;;;;;7392642;19;20041;-50
2021/09/06 07:15:15;;;;;;;1.30;0.70;;;;;;;;;;7391346;19;20006;-51
2021/09/06 07:17:43;;;;;;;1.90;0.95;;;;;;;;;;7390597;19;20035;-51
2021/09/06 07:20:11;;;;;;;2.33;0.88;;;;;;;;;;7392100;19;20018;-50
2021/09/06 07:22:39;;;;;;;1.67;0.70;;;;;;;;;;7389024;19;20031;-50
2021/09/06 07:25:07;;;;;;;48.72;21.75;;;;;;;;;;7390066;19;20389;-47
2021/09/06 07:27:35;;;;;;;119.15;55.35;;;;;;;;;;7389935;19;20018;-47
2021/09/06 07:30:06;;;;;;;6.95;2.70;;;;;;;;;;7390113;19;20011;-47
2021/09/06 07:32:35;;;;;;;2.00;0.85;;;;;;;;;;7390236;19;20007;-48
2021/09/06 07:35:05;;;;;;;1.90;0.80;;;;;;;;;;7389899;19;20031;-49
2021/09/06 07:37:33;;;;;;;1.60;0.63;;;;;;;;;;7389119;19;20484;-48
2021/09/06 07:40:00;;;;;;;2.80;0.70;;;;;;;;;;7391516;19;20026;-49
2021/09/06 07:42:30;;;;;;;1.35;0.75;;;;;;;;;;7389911;19;20010;-48
2021/09/06 07:44:58;;;;;;;2.70;1.08;;;;;;;;;;7389960;19;20006;-51
2021/09/06 07:47:26;;;;;;;1.75;0.70;;;;;;;;;;7389742;19;20010;-49
2021/09/06 07:49:53;;;;;;;1.35;0.65;;;;;;;;;;7390132;19;20034;-51
2021/09/06 07:52:21;;;;;;;1.88;1.00;;;;;;;;;;7393884;19;20022;-49
2021/09/06 07:54:49;;;;;;;2.20;0.80;;;;;;;;;;7389939;19;20471;-49
2021/09/06 07:57:18;;;;;;;1.30;0.60;;;;;;;;;;7389706;19;20038;-49
2021/09/06 07:59:46;;;;;;;1.77;0.80;;;;;;;;;;7389329;19;20487;-51
2021/09/06 08:02:13;;;;;;;2.92;1.00;;;;;;;;;;7387974;19;20007;-47
2021/09/06 08:04:47;;;;;;;9.07;4.10;;;;;;;;;;7389705;19;20014;-57
2021/09/06 08:07:15;;;;;;;2.58;1.20;;;;;;;;;;7391871;19;20010;-49
2021/09/06 08:09:43;;;;;;;1.65;0.90;;;;;;;;;;7388859;19;20479;-47
2021/09/06 08:12:12;;;;;;;2.20;0.73;;;;;;;;;;7387485;19;20019;-58
2021/09/06 08:14:40;;;;;;;1.35;0.80;;;;;;;;;;7388516;19;20035;-48
2021/09/06 08:17:07;;;;;;;2.38;1.00;;;;;;;;;;7389861;19;20021;-48
2021/09/06 08:19:37;;;;;;;2.38;1.10;;;;;;;;;;7394189;19;20014;-51
2021/09/06 08:22:05;;;;;;;2.22;0.80;;;;;;;;;;7393644;19;20037;-49
2021/09/06 08:24:33;;;;;;;2.15;0.88;;;;;;;;;;7395254;19;20091;-50
2021/09/06 08:27:01;;;;;;;1.58;0.70;;;;;;;;;;7395738;19;20011;-47
2021/09/06 08:29:29;;;;;;;1.58;0.80;;;;;;;;;;7395597;19;20014;-46
2021/09/06 08:31:56;;;;;;;2.10;0.90;;;;;;;;;;7395281;19;20361;-48
2021/09/06 08:34:26;;;;;;;60.00;25.05;;;;;;;;;;7395440;19;20014;-47
2021/09/06 08:36:54;;;;;;;9.90;5.32;;;;;;;;;;7395404;19;20074;-48
2021/09/06 08:39:21;;;;;;;2.65;0.95;;;;;;;;;;7395482;19;20039;-51
2021/09/06 08:41:51;;;;;;;1.77;0.77;;;;;;;;;;7394697;19;20022;-48
2021/09/06 08:44:18;;;;;;;3.95;0.82;;;;;;;;;;7395495;19;20015;-50
2021/09/06 08:46:46;;;;;;;2.22;0.75;;;;;;;;;;7395271;19;20031;-52
2021/09/06 08:49:16;;;;;;;1.10;0.70;;;;;;;;;;7395204;19;20332;-50
2021/09/06 08:51:44;;;;;;;2.05;0.82;;;;;;;;;;7394470;19;20042;-51
2021/09/06 08:54:13;;;;;;;1.70;0.70;;;;;;;;;;7394400;19;20190;-62
2021/09/06 08:56:42;;;;;;;1.52;0.80;;;;;;;;;;7395210;19;20862;-55
2021/09/06 08:59:13;;;;;;;2.08;0.88;;;;;;;;;;7398927;19;20369;-57
2021/09/06 09:01:43;;;;;;;2.00;0.75;;;;;;;;;;7398912;19;20003;-57
2021/09/06 09:04:58;;;;;;;1.58;0.80;;;;;;;;;;7395671;19;20011;-57
2021/09/06 09:07:32;;;;;;;2.75;0.90;;;;;;;;;;7394803;19;20018;-56
2021/09/06 09:10:31;;;;;;;4.47;0.80;;;;;;;;;;7397149;19;20484;-57
2021/09/06 09:13:32;;;;;;;1.75;0.80;;;;;;;;;;7392919;19;20371;-57
2021/09/06 09:16:20;;;;;;;1.65;0.82;;;;;;;;;;7395865;19;20028;-63
2021/09/06 09:19:14;;;;;;;4.95;1.63;;;;;;;;;;7395352;19;20487;-57
2021/09/06 09:22:04;;;;;;;2.20;1.38;;;;;;;;;;7392287;19;20032;-59
2021/09/06 09:25:00;;;;;;;2.00;0.88;;;;;;;;;;7394431;19;20007;-49
2021/09/06 09:27:52;;;;;;;1.38;0.70;;;;;;;;;;7394162;19;20011;-50
2021/09/06 09:30:33;;;;;;;3.05;1.20;;;;;;;;;;7392171;19;20464;-52
2021/09/06 09:33:20;;;;;;;2.25;0.65;;;;;;;;;;7395357;19;20036;-48
2021/09/06 09:36:19;;;;;;;3.63;1.00;;;;;;;;;;7396510;19;20014;31
2021/09/06 09:38:48;;;;;;;2.20;1.10;;;;;;;;;;7395694;19;20047;-60
2021/09/06 09:41:16;;;;;;;1.58;0.90;;;;;;;;;;7393320;19;20011;-59
2021/09/06 09:43:44;;;;;;;1.38;0.70;;;;;;;;;;7394568;19;20018;-62
2021/09/06 09:46:26;;;;;;;1.48;0.70;;;;;;;;;;7393449;19;20356;-55
2021/09/06 09:49:31;;;;;;;2.58;0.98;;;;;;;;;;7393177;19;20385;-59
2021/09/06 09:51:59;;;;;;;1.35;0.63;;;;;;;;;;7394413;19;20480;-61
2021/09/06 09:54:27;;;;;;;2.08;0.85;;;;;;;;;;7394602;19;20014;-60
2021/09/06 09:56:55;;;;;;;2.53;0.95;;;;;;;;;;7394660;19;20514;-59
2021/09/06 09:59:24;;;;;;;1.63;0.80;;;;;;;;;;7394711;19;20014;-59
2021/09/06 10:01:58;;;;;;;1.13;0.60;;;;;;;;;;7394288;19;20010;-57
2021/09/06 10:04:31;;;;;;;1.83;0.82;;;;;;;;;;7394762;19;20014;-58
2021/09/06 10:07:01;;;;;;;41.13;17.30;;;;;;;;;;7394167;19;20083;-53
2021/09/06 10:09:39;;;;;;;2.95;1.00;;;;;;;;;;7392764;19;20022;-55
2021/09/06 10:12:08;;;;;;;3.25;0.68;;;;;;;;;;7391870;19;20380;-54
2021/09/06 10:14:48;;;;;;;2.45;0.80;;;;;;;;;;7394114;19;20073;-55
2021/09/06 10:17:16;;;;;;;4.07;0.80;;;;;;;;;;7393834;19;20015;-55
2021/09/06 10:19:53;;;;;;;1.48;0.50;;;;;;;;;;7392418;19;20017;-53
2021/09/06 10:22:28;;;;;;;2.47;0.80;;;;;;;;;;7393562;19;20015;-54
2021/09/06 10:25:06;;;;;;;1.52;0.85;;;;;;;;;;7394197;19;20481;-57
2021/09/06 10:27:37;;;;;;;1.25;0.70;;;;;;;;;;7393410;19;20017;-56
2021/09/06 10:30:10;;;;;;;1.55;0.65;;;;;;;;;;7393562;19;20466;-51
2021/09/06 10:32:42;;;;;;;1.75;0.50;;;;;;;;;;7393996;19;20018;-53
2021/09/06 10:35:17;;;;;;;1.75;0.77;;;;;;;;;;7393538;19;20006;-53
2021/09/06 10:37:47;;;;;;;1.23;0.60;;;;;;;;;;7393624;19;20010;-60
2021/09/06 10:40:29;;;;;;;3.08;0.77;;;;;;;;;;7393656;19;20013;-57
2021/09/06 10:42:56;;;;;;;1.45;0.70;;;;;;;;;;7389039;19;20498;-57
2021/09/06 10:45:27;;;;;;;1.88;0.68;;;;;;;;;;7393050;19;20605;-56
2021/09/06 10:47:59;;;;;;;2.92;0.70;;;;;;;;;;7393514;19;20026;-51
2021/09/06 10:50:27;;;;;;;1.23;0.50;;;;;;;;;;7393513;19;20026;-52
2021/09/06 10:52:56;;;;;;;1.85;0.93;;;;;;;;;;7396285;19;20022;-49
2021/09/06 10:55:24;;;;;;;1.60;0.70;;;;;;;;;;7392864;19;20563;-50
2021/09/06 10:57:53;;;;;;;1.70;0.70;;;;;;;;;;7392858;19;20021;-52
2021/09/06 11:00:23;;;;;;;1.60;0.52;;;;;;;;;;7393078;19;20010;-55
2021/09/06 11:02:53;;;;;;;1.88;0.70;;;;;;;;;;7391573;19;20010;-53
2021/09/06 11:05:23;;;;;;;7.65;3.20;;;;;;;;;;7392587;19;20030;-51
2021/09/06 11:08:02;;;;;;;1.67;0.82;;;;;;;;;;7390978;19;20122;-60
2021/09/06 11:10:31;;;;;;;2.47;0.70;;;;;;;;;;7392646;19;20027;-55
2021/09/06 11:13:02;;;;;;;2.17;0.90;;;;;;;;;;7392149;19;20372;-55
2021/09/06 11:15:33;;;;;;;2.95;0.70;;;;;;;;;;7391803;19;20018;-51
2021/09/06 11:18:06;;;;;;;1.38;0.70;;;;;;;;;;7392587;19;20027;-58
2021/09/06 11:20:36;;;;;;;1.05;0.60;;;;;;;;;;7392133;19;20031;-54
2021/09/06 11:23:09;;;;;;;1.45;0.50;;;;;;;;;;7391162;19;20039;-60
2021/09/06 11:25:40;;;;;;;2.47;0.65;;;;;;;;;;7390434;19;20037;-56
2021/09/06 11:28:10;;;;;;;1.52;0.75;;;;;;;;;;7391753;19;20006;-58
2021/09/06 11:30:42;;;;;;;1.35;0.60;;;;;;;;;;7391779;19;20011;-54
2021/09/06 11:33:11;;;;;;;2.75;0.98;;;;;;;;;;7392403;19;20006;-56
2021/09/06 11:35:43;;;;;;;39.13;18.60;;;;;;;;;;7391710;19;20011;-60
2021/09/06 11:38:12;;;;;;;0.82;0.50;;;;;;;;;;7391605;19;20074;-57
2021/09/06 11:40:42;;;;;;;1.17;0.60;;;;;;;;;;7387732;19;20471;-55
2021/09/06 11:43:10;;;;;;;1.23;0.60;;;;;;;;;;7389626;19;20014;-55
2021/09/06 11:45:37;;;;;;;1.38;0.68;;;;;;;;;;7389525;19;20015;-59
2021/09/06 11:48:07;;;;;;;1.10;0.50;;;;;;;;;;7391087;19;20017;-49
2021/09/06 11:50:39;;;;;;;3.15;0.60;;;;;;;;;;7390794;19;20006;-53
2021/09/06 11:53:12;;;;;;;0.73;0.40;;;;;;;;;;7396082;19;20015;-55
2021/09/06 11:55:54;;;;;;;1.75;1.05;;;;;;;;;;7398066;19;20028;-58
2021/09/06 11:58:44;;;;;;;2.35;0.90;;;;;;;;;;7397072;19;20015;-56
2021/09/06 12:01:16;;;;;;;1.00;0.60;;;;;;;;;;7397968;19;20014;-58
2021/09/06 12:03:46;;;;;;;2.15;0.70;;;;;;;;;;7393721;19;20114;-56
2021/09/06 12:06:17;;;;;;;31.25;17.15;;;;;;;;;;7396652;19;20014;-54
2021/09/06 12:08:57;;;;;;;3.75;1.90;;;;;;;;;;7398505;19;20066;-60
2021/09/06 12:11:49;;;;;;;1.67;0.80;;;;;;;;;;7398011;19;20086;-57
2021/09/06 12:14:17;;;;;;;1.48;0.55;;;;;;;;;;7398376;19;20362;-56
2021/09/06 12:16:45;;;;;;;0.90;0.60;;;;;;;;;;7396702;19;20010;-59
2021/09/06 12:19:19;;;;;;;1.25;0.60;;;;;;;;;;7397840;19;20011;-61
2021/09/06 12:21:49;;;;;;;0.90;0.52;;;;;;;;;;7396480;19;20475;-61
2021/09/06 12:24:24;;;;;;;1.70;0.98;;;;;;;;;;7397980;19;20014;-57
2021/09/06 12:26:53;;;;;;;1.38;0.60;;;;;;;;;;7397983;19;20014;-57
2021/09/06 12:29:32;;;;;;;2.25;0.57;;;;;;;;;;7398337;19;20019;-58
2021/09/06 12:32:02;;;;;;;1.58;0.88;;;;;;;;;;7397819;19;20010;-58
2021/09/06 12:34:31;;;;;;;47.88;19.92;;;;;;;;;;7397369;19;20006;-54
2021/09/06 12:37:00;;;;;;;6.38;2.92;;;;;;;;;;7397838;19;20002;-57
2021/09/06 12:39:29;;;;;;;3.30;0.90;;;;;;;;;;7397322;19;20010;-59
2021/09/06 12:41:57;;;;;;;2.63;0.80;;;;;;;;;;7394784;19;20026;-62
2021/09/06 12:44:25;;;;;;;4.38;0.82;;;;;;;;;;7397267;19;20007;-59
2021/09/06 12:46:53;;;;;;;1.60;0.70;;;;;;;;;;7397024;19;20014;-57
2021/09/06 12:49:24;;;;;;;1.17;0.60;;;;;;;;;;7397090;19;20010;-57
2021/09/06 12:51:54;;;;;;;1.30;0.60;;;;;;;;;;7399423;19;20022;-57
2021/09/06 12:54:21;;;;;;;2.90;0.90;;;;;;;;;;7395853;19;20023;-60
2021/09/06 12:56:51;;;;;;;2.28;0.90;;;;;;;;;;7394677;19;20074;-58
2021/09/06 12:59:21;;;;;;;1.98;0.68;;;;;;;;;;7396366;19;20023;-59
2021/09/06 13:01:51;;;;;;;26.85;12.00;;;;;;;;;;7399720;19;20031;-51
2021/09/06 13:04:20;;;;;;;4.70;1.40;;;;;;;;;;7392190;19;20014;-51
2021/09/06 13:06:48;;;;;;;1.45;0.75;;;;;;;;;;7395371;19;20130;-51
2021/09/06 13:09:16;;;;;;;1.70;0.47;;;;;;;;;;7396648;19;20014;-52
2021/09/06 13:11:43;;;;;;;0.70;0.32;;;;;;;;;;7396086;19;20014;-52
2021/09/06 13:14:11;;;;;;;0.70;0.50;;;;;;;;;;7399766;19;20475;-52
2021/09/06 13:16:39;;;;;;;3.00;1.48;;;;;;;;;;7396316;19;20029;-51
2021/09/06 13:19:06;;;;;;;3.55;1.50;;;;;;;;;;7396082;19;20017;-52
2021/09/06 13:21:34;;;;;;;2.85;1.27;;;;;;;;;;7395627;19;20483;-52
2021/09/06 13:24:01;;;;;;;7.60;3.38;;;;;;;;;;7393385;19;20017;-56
2021/09/06 13:26:29;;;;;;;3.50;1.42;;;;;;;;;;7395078;19;20031;-55
2021/09/06 13:28:57;;;;;;;2.20;0.80;;;;;;;;;;7395901;19;20017;-58
2021/09/06 13:31:24;;;;;;;0.82;0.50;;;;;;;;;;7395812;19;20077;-58
2021/09/06 13:33:53;;;;;;;1.38;0.50;;;;;;;;;;7395977;19;20039;-57
2021/09/06 13:36:21;;;;;;;1.83;0.80;;;;;;;;;;7395801;19;20025;-58
2021/09/06 13:38:49;;;;;;;2.28;0.90;;;;;;;;;;7394100;19;20014;-58
2021/09/06 13:41:18;;;;;;;1.38;0.70;;;;;;;;;;7390614;19;20493;-57
2021/09/06 13:43:45;;;;;;;1.58;0.40;;;;;;;;;;7393813;19;20013;-57
2021/09/06 13:46:13;;;;;;;0.90;0.50;;;;;;;;;;7392388;19;20010;-51
2021/09/06 13:48:40;;;;;;;0.60;0.40;;;;;;;;;;7392848;19;20018;-54
2021/09/06 13:51:08;;;;;;;1.83;0.77;;;;;;;;;;7393663;19;20015;-58
2021/09/06 13:53:37;;;;;;;1.30;0.60;;;;;;;;;;7394670;19;20010;-56
2021/09/06 13:56:09;;;;;;;1.20;0.50;;;;;;;;;;7394455;19;20011;-59
2021/09/06 13:58:40;;;;;;;1.65;0.50;;;;;;;;;;7395035;19;20014;-58
2021/09/06 14:01:09;;;;;;;0.77;0.50;;;;;;;;;;7394765;19;20007;-58
2021/09/06 14:03:37;;;;;;;1.42;0.75;;;;;;;;;;7392629;19;20018;-57
2021/09/06 14:06:05;;;;;;;1.55;0.77;;;;;;;;;;7394445;19;20375;-58
2021/09/06 14:08:44;;;;;;;7.75;3.40;;;;;;;;;;7399343;19;20114;-56
2021/09/06 14:11:12;;;;;;;8.63;5.05;;;;;;;;;;7392492;19;20011;-59
2021/09/06 14:13:39;;;;;;;2.00;1.00;;;;;;;;;;7393993;19;20111;-57
2021/09/06 14:16:07;;;;;;;1.40;0.88;;;;;;;;;;7393736;19;20010;-62
2021/09/06 14:18:35;;;;;;;2.28;0.60;;;;;;;;;;7393976;19;20487;-58
2021/09/06 14:21:02;;;;;;;2.03;0.70;;;;;;;;;;7393813;19;20029;-62
2021/09/06 14:23:30;;;;;;;0.90;0.57;;;;;;;;;;7392127;19;20015;-53
2021/09/06 14:25:58;;;;;;;1.08;0.55;;;;;;;;;;7393044;19;20011;-57
2021/09/06 14:28:26;;;;;;;1.10;0.60;;;;;;;;;;7393777;19;20014;-53
2021/09/06 14:30:54;;;;;;;1.33;0.60;;;;;;;;;;7393235;19;20415;-52
2021/09/06 14:33:23;;;;;;;2.05;0.63;;;;;;;;;;7393423;19;20011;-55
2021/09/06 14:35:50;;;;;;;1.20;0.50;;;;;;;;;;7393750;19;20018;-53
2021/09/06 14:38:22;;;;;;;1.48;0.60;;;;;;;;;;7395595;19;20043;-59
2021/09/06 14:40:50;;;;;;;0.75;0.47;;;;;;;;;;7393722;19;20025;-61
2021/09/06 14:43:17;;;;;;;0.82;0.43;;;;;;;;;;7391990;19;20007;-61
2021/09/06 14:46:07;;;;;;;1.92;0.60;;;;;;;;;;7393106;19;20023;-62
2021/09/06 14:48:35;;;;;;;1.42;0.60;;;;;;;;;;7391238;19;20016;-61
2021/09/06 14:51:03;;;;;;;1.70;0.80;;;;;;;;;;7390284;19;20457;-62
2021/09/06 14:53:30;;;;;;;4.22;0.70;;;;;;;;;;7390668;19;20018;-48
2021/09/06 14:55:58;;;;;;;2.55;0.52;;;;;;;;;;7393084;19;20007;-57
2021/09/06 14:58:25;;;;;;;1.90;0.60;;;;;;;;;;7391822;19;20010;-49
2021/09/06 15:00:52;;;;;;;2.70;0.88;;;;;;;;;;7393052;19;20015;-48
2021/09/06 15:03:32;;;;;;;4.78;0.75;;;;;;;;;;7391670;19;20006;-51